sensor_id;sensor_type;location;lat;lon;timestamp;P1;durP1;ratioP1;P2;durP2;ratioP2
15383;SDS011;7790;53.022;12.968;2024-03-02T00:03:39;6.73;;;5.10;;
15383;SDS011;7790;53.022;12.968;2024-03-02T00:07:41;5.23;;;4.77;;
15383;SDS011;7790;53.022;12.968;2024-03-02T00:11:42;6.23;;;5.50;;
15383;SDS011;7790;53.022;12.968;2024-03-02T00:16:02;7.70;;;5.20;;
15383;SDS011;7790;53.022;12.968;2024-03-02T00:20:05;7.73;;;5.20;;
15383;SDS011;7790;53.022;12.968;2024-03-02T00:28:34;5.93;;;5.13;;
15383;SDS011;7790;53.022;12.968;2024-03-02T00:32:36;5.83;;;4.80;;
15383;SDS011;7790;53.022;12.968;2024-03-02T00:36:36;5.50;;;5.00;;
15383;SDS011;7790;53.022;12.968;2024-03-02T00:40:37;5.63;;;5.10;;
15383;SDS011;7790;53.022;12.968;2024-03-02T00:44:38;5.07;;;4.67;;
15383;SDS011;7790;53.022;12.968;2024-03-02T00:48:40;5.33;;;4.80;;
15383;SDS011;7790;53.022;12.968;2024-03-02T00:52:48;5.53;;;5.03;;
15383;SDS011;7790;53.022;12.968;2024-03-02T00:56:49;5.77;;;5.17;;
15383;SDS011;7790;53.022;12.968;2024-03-02T01:00:50;5.67;;;5.17;;
15383;SDS011;7790;53.022;12.968;2024-03-02T01:04:51;6.10;;;5.60;;
15383;SDS011;7790;53.022;12.968;2024-03-02T01:08:52;5.37;;;4.87;;
15383;SDS011;7790;53.022;12.968;2024-03-02T01:12:53;5.57;;;5.07;;
15383;SDS011;7790;53.022;12.968;2024-03-02T01:16:54;5.27;;;4.70;;
15383;SDS011;7790;53.022;12.968;2024-03-02T01:20:55;5.43;;;4.93;;
15383;SDS011;7790;53.022;12.968;2024-03-02T01:24:56;5.73;;;5.17;;
15383;SDS011;7790;53.022;12.968;2024-03-02T01:28:56;5.80;;;5.30;;
15383;SDS011;7790;53.022;12.968;2024-03-02T01:32:57;5.40;;;4.90;;
15383;SDS011;7790;53.022;12.968;2024-03-02T01:36:59;5.43;;;4.83;;
15383;SDS011;7790;53.022;12.968;2024-03-02T01:41:00;5.80;;;5.20;;
15383;SDS011;7790;53.022;12.968;2024-03-02T01:45:01;5.07;;;4.67;;
15383;SDS011;7790;53.022;12.968;2024-03-02T01:49:02;5.03;;;4.63;;
15383;SDS011;7790;53.022;12.968;2024-03-02T01:53:03;5.53;;;5.03;;
15383;SDS011;7790;53.022;12.968;2024-03-02T01:57:04;5.60;;;5.10;;
15383;SDS011;7790;53.022;12.968;2024-03-02T02:01:05;5.40;;;4.90;;
15383;SDS011;7790;53.022;12.968;2024-03-02T02:05:06;5.70;;;4.97;;
15383;SDS011;7790;53.022;12.968;2024-03-02T02:09:07;5.87;;;5.17;;
15383;SDS011;7790;53.022;12.968;2024-03-02T02:13:08;5.73;;;5.23;;
15383;SDS011;7790;53.022;12.968;2024-03-02T02:17:09;5.77;;;5.27;;
15383;SDS011;7790;53.022;12.968;2024-03-02T02:21:10;5.33;;;4.90;;
15383;SDS011;7790;53.022;12.968;2024-03-02T02:25:11;6.67;;;5.60;;
15383;SDS011;7790;53.022;12.968;2024-03-02T02:29:11;5.60;;;5.03;;
15383;SDS011;7790;53.022;12.968;2024-03-02T02:33:12;5.00;;;4.60;;
15383;SDS011;7790;53.022;12.968;2024-03-02T02:37:13;5.60;;;5.10;;
15383;SDS011;7790;53.022;12.968;2024-03-02T02:41:14;6.10;;;5.50;;
15383;SDS011;7790;53.022;12.968;2024-03-02T02:45:15;5.23;;;4.83;;
15383;SDS011;7790;53.022;12.968;2024-03-02T02:49:16;5.23;;;4.83;;
15383;SDS011;7790;53.022;12.968;2024-03-02T02:53:17;5.67;;;5.17;;
15383;SDS011;7790;53.022;12.968;2024-03-02T02:57:18;5.17;;;4.77;;
15383;SDS011;7790;53.022;12.968;2024-03-02T03:01:18;5.30;;;4.80;;
15383;SDS011;7790;53.022;12.968;2024-03-02T03:05:20;5.43;;;4.83;;
15383;SDS011;7790;53.022;12.968;2024-03-02T03:09:20;5.47;;;4.97;;
15383;SDS011;7790;53.022;12.968;2024-03-02T03:13:21;5.50;;;5.10;;
15383;SDS011;7790;53.022;12.968;2024-03-02T03:17:23;5.30;;;4.90;;
15383;SDS011;7790;53.022;12.968;2024-03-02T03:21:23;5.17;;;4.77;;
15383;SDS011;7790;53.022;12.968;2024-03-02T03:25:24;5.43;;;5.03;;
15383;SDS011;7790;53.022;12.968;2024-03-02T03:29:25;5.33;;;4.90;;
15383;SDS011;7790;53.022;12.968;2024-03-02T03:33:26;5.43;;;5.03;;
15383;SDS011;7790;53.022;12.968;2024-03-02T03:37:27;5.23;;;4.83;;
15383;SDS011;7790;53.022;12.968;2024-03-02T03:41:32;5.27;;;4.87;;
15383;SDS011;7790;53.022;12.968;2024-03-02T03:45:33;4.93;;;4.53;;
15383;SDS011;7790;53.022;12.968;2024-03-02T03:49:34;5.57;;;5.07;;
15383;SDS011;7790;53.022;12.968;2024-03-02T03:53:35;5.50;;;5.00;;
15383;SDS011;7790;53.022;12.968;2024-03-02T03:57:36;5.37;;;4.97;;
15383;SDS011;7790;53.022;12.968;2024-03-02T04:01:37;5.33;;;4.93;;
15383;SDS011;7790;53.022;12.968;2024-03-02T04:05:38;5.10;;;4.70;;
15383;SDS011;7790;53.022;12.968;2024-03-02T04:09:38;5.60;;;5.10;;
15383;SDS011;7790;53.022;12.968;2024-03-02T04:13:39;5.13;;;4.73;;
15383;SDS011;7790;53.022;12.968;2024-03-02T04:17:40;5.03;;;4.63;;
15383;SDS011;7790;53.022;12.968;2024-03-02T04:21:41;6.10;;;4.90;;
15383;SDS011;7790;53.022;12.968;2024-03-02T04:25:42;6.90;;;4.90;;
15383;SDS011;7790;53.022;12.968;2024-03-02T04:29:42;5.43;;;5.03;;
15383;SDS011;7790;53.022;12.968;2024-03-02T04:33:43;5.73;;;5.10;;
15383;SDS011;7790;53.022;12.968;2024-03-02T04:37:44;4.80;;;4.40;;
15383;SDS011;7790;53.022;12.968;2024-03-02T04:41:45;7.23;;;5.47;;
15383;SDS011;7790;53.022;12.968;2024-03-02T04:45:46;5.33;;;4.83;;
15383;SDS011;7790;53.022;12.968;2024-03-02T04:49:46;5.23;;;4.83;;
15383;SDS011;7790;53.022;12.968;2024-03-02T04:53:47;6.20;;;5.20;;
15383;SDS011;7790;53.022;12.968;2024-03-02T04:57:48;6.13;;;4.80;;
15383;SDS011;7790;53.022;12.968;2024-03-02T05:01:51;5.47;;;4.97;;
15383;SDS011;7790;53.022;12.968;2024-03-02T05:05:51;4.97;;;4.57;;
15383;SDS011;7790;53.022;12.968;2024-03-02T05:09:52;5.60;;;5.10;;
15383;SDS011;7790;53.022;12.968;2024-03-02T05:13:53;5.93;;;5.43;;
15383;SDS011;7790;53.022;12.968;2024-03-02T05:17:54;5.30;;;4.90;;
15383;SDS011;7790;53.022;12.968;2024-03-02T05:21:57;5.33;;;4.77;;
15383;SDS011;7790;53.022;12.968;2024-03-02T05:25:58;5.57;;;5.07;;
15383;SDS011;7790;53.022;12.968;2024-03-02T05:29:59;5.53;;;5.03;;
15383;SDS011;7790;53.022;12.968;2024-03-02T05:34:00;5.20;;;4.80;;
15383;SDS011;7790;53.022;12.968;2024-03-02T05:38:01;5.40;;;4.90;;
15383;SDS011;7790;53.022;12.968;2024-03-02T05:42:02;4.97;;;4.57;;
15383;SDS011;7790;53.022;12.968;2024-03-02T05:46:03;4.90;;;4.50;;
15383;SDS011;7790;53.022;12.968;2024-03-02T05:50:04;8.93;;;6.63;;
15383;SDS011;7790;53.022;12.968;2024-03-02T05:54:05;7.30;;;6.60;;
15383;SDS011;7790;53.022;12.968;2024-03-02T05:58:06;5.60;;;5.00;;
15383;SDS011;7790;53.022;12.968;2024-03-02T06:02:07;5.23;;;4.83;;
15383;SDS011;7790;53.022;12.968;2024-03-02T06:10:43;5.83;;;5.23;;
15383;SDS011;7790;53.022;12.968;2024-03-02T06:14:51;6.00;;;5.10;;
15383;SDS011;7790;53.022;12.968;2024-03-02T06:18:55;5.20;;;4.77;;
15383;SDS011;7790;53.022;12.968;2024-03-02T06:23:19;5.23;;;4.70;;
15383;SDS011;7790;53.022;12.968;2024-03-02T06:28:13;5.17;;;4.77;;
15383;SDS011;7790;53.022;12.968;2024-03-02T06:32:16;5.33;;;4.83;;
15383;SDS011;7790;53.022;12.968;2024-03-02T06:36:21;5.53;;;4.97;;
15383;SDS011;7790;53.022;12.968;2024-03-02T06:40:21;5.63;;;4.60;;
15383;SDS011;7790;53.022;12.968;2024-03-02T06:44:22;5.47;;;5.07;;
15383;SDS011;7790;53.022;12.968;2024-03-02T06:48:23;5.97;;;5.40;;
15383;SDS011;7790;53.022;12.968;2024-03-02T06:52:24;5.33;;;4.93;;
15383;SDS011;7790;53.022;12.968;2024-03-02T06:56:26;5.57;;;5.07;;
15383;SDS011;7790;53.022;12.968;2024-03-02T07:00:36;5.77;;;5.27;;
15383;SDS011;7790;53.022;12.968;2024-03-02T07:04:37;6.37;;;5.57;;
15383;SDS011;7790;53.022;12.968;2024-03-02T07:08:39;5.83;;;5.30;;
15383;SDS011;7790;53.022;12.968;2024-03-02T07:12:44;7.77;;;6.13;;
15383;SDS011;7790;53.022;12.968;2024-03-02T07:16:52;7.03;;;5.67;;
15383;SDS011;7790;53.022;12.968;2024-03-02T07:20:56;6.53;;;5.93;;
15383;SDS011;7790;53.022;12.968;2024-03-02T07:25:01;7.07;;;6.07;;
15383;SDS011;7790;53.022;12.968;2024-03-02T07:29:25;7.43;;;5.63;;
15383;SDS011;7790;53.022;12.968;2024-03-02T07:33:59;6.47;;;5.87;;
15383;SDS011;7790;53.022;12.968;2024-03-02T07:38:18;7.23;;;5.73;;
15383;SDS011;7790;53.022;12.968;2024-03-02T07:42:22;7.53;;;5.70;;
15383;SDS011;7790;53.022;12.968;2024-03-02T07:46:23;7.00;;;6.30;;
15383;SDS011;7790;53.022;12.968;2024-03-02T07:50:30;6.50;;;5.60;;
15383;SDS011;7790;53.022;12.968;2024-03-02T07:54:41;6.63;;;6.00;;
15383;SDS011;7790;53.022;12.968;2024-03-02T07:58:42;6.47;;;5.87;;
15383;SDS011;7790;53.022;12.968;2024-03-02T08:02:50;6.50;;;5.60;;
15383;SDS011;7790;53.022;12.968;2024-03-02T08:07:00;6.43;;;5.80;;
15383;SDS011;7790;53.022;12.968;2024-03-02T08:11:28;7.33;;;5.83;;
15383;SDS011;7790;53.022;12.968;2024-03-02T08:15:30;7.27;;;6.20;;
15383;SDS011;7790;53.022;12.968;2024-03-02T08:19:31;6.80;;;6.10;;
15383;SDS011;7790;53.022;12.968;2024-03-02T08:23:39;6.43;;;5.83;;
15383;SDS011;7790;53.022;12.968;2024-03-02T08:27:52;5.63;;;5.13;;
15383;SDS011;7790;53.022;12.968;2024-03-02T08:32:04;6.83;;;6.13;;
15383;SDS011;7790;53.022;12.968;2024-03-02T08:36:56;7.33;;;6.00;;
15383;SDS011;7790;53.022;12.968;2024-03-02T08:41:09;7.27;;;6.27;;
15383;SDS011;7790;53.022;12.968;2024-03-02T08:50:01;6.93;;;6.23;;
15383;SDS011;7790;53.022;12.968;2024-03-02T08:54:04;9.90;;;7.53;;
15383;SDS011;7790;53.022;12.968;2024-03-02T08:58:06;9.23;;;7.27;;
15383;SDS011;7790;53.022;12.968;2024-03-02T09:02:07;9.23;;;7.90;;
15383;SDS011;7790;53.022;12.968;2024-03-02T09:06:08;8.33;;;7.50;;
15383;SDS011;7790;53.022;12.968;2024-03-02T09:10:09;9.43;;;7.40;;
15383;SDS011;7790;53.022;12.968;2024-03-02T09:14:10;9.60;;;7.30;;
15383;SDS011;7790;53.022;12.968;2024-03-02T09:18:12;8.73;;;7.13;;
15383;SDS011;7790;53.022;12.968;2024-03-02T09:22:12;8.37;;;6.63;;
15383;SDS011;7790;53.022;12.968;2024-03-02T09:26:14;8.03;;;7.23;;
15383;SDS011;7790;53.022;12.968;2024-03-02T09:30:14;7.90;;;7.10;;
15383;SDS011;7790;53.022;12.968;2024-03-02T09:34:15;9.10;;;7.03;;
15383;SDS011;7790;53.022;12.968;2024-03-02T09:38:16;8.07;;;6.97;;
15383;SDS011;7790;53.022;12.968;2024-03-02T09:42:17;8.30;;;6.83;;
15383;SDS011;7790;53.022;12.968;2024-03-02T09:46:19;7.90;;;6.70;;
15383;SDS011;7790;53.022;12.968;2024-03-02T09:50:20;9.77;;;6.47;;
15383;SDS011;7790;53.022;12.968;2024-03-02T09:54:20;8.93;;;6.87;;
15383;SDS011;7790;53.022;12.968;2024-03-02T09:58:25;7.93;;;5.83;;
15383;SDS011;7790;53.022;12.968;2024-03-02T10:02:26;10.93;;;6.57;;
15383;SDS011;7790;53.022;12.968;2024-03-02T10:06:36;10.07;;;6.77;;
15383;SDS011;7790;53.022;12.968;2024-03-02T10:10:46;7.03;;;5.73;;
15383;SDS011;7790;53.022;12.968;2024-03-02T10:14:47;9.23;;;6.07;;
15383;SDS011;7790;53.022;12.968;2024-03-02T10:18:50;7.97;;;6.30;;
15383;SDS011;7790;53.022;12.968;2024-03-02T10:22:52;11.33;;;5.93;;
15383;SDS011;7790;53.022;12.968;2024-03-02T10:27:00;7.67;;;5.43;;
15383;SDS011;7790;53.022;12.968;2024-03-02T10:31:01;7.13;;;5.47;;
15383;SDS011;7790;53.022;12.968;2024-03-02T10:35:02;8.40;;;5.67;;
15383;SDS011;7790;53.022;12.968;2024-03-02T10:39:04;7.10;;;6.10;;
15383;SDS011;7790;53.022;12.968;2024-03-02T10:43:06;6.30;;;5.70;;
15383;SDS011;7790;53.022;12.968;2024-03-02T10:47:07;6.13;;;5.40;;
15383;SDS011;7790;53.022;12.968;2024-03-02T10:51:12;6.47;;;5.43;;
15383;SDS011;7790;53.022;12.968;2024-03-02T10:55:13;6.93;;;5.87;;
15383;SDS011;7790;53.022;12.968;2024-03-02T10:59:21;12.07;;;5.90;;
15383;SDS011;7790;53.022;12.968;2024-03-02T11:03:35;6.83;;;6.17;;
15383;SDS011;7790;53.022;12.968;2024-03-02T11:07:39;9.30;;;5.87;;
15383;SDS011;7790;53.022;12.968;2024-03-02T11:11:43;13.80;;;5.83;;
15383;SDS011;7790;53.022;12.968;2024-03-02T11:15:45;7.53;;;5.37;;
15383;SDS011;7790;53.022;12.968;2024-03-02T11:19:46;7.03;;;5.80;;
15383;SDS011;7790;53.022;12.968;2024-03-02T11:23:48;7.37;;;6.20;;
15383;SDS011;7790;53.022;12.968;2024-03-02T11:31:59;6.23;;;5.30;;
15383;SDS011;7790;53.022;12.968;2024-03-02T11:36:00;7.80;;;5.07;;
15383;SDS011;7790;53.022;12.968;2024-03-02T11:40:01;7.13;;;5.10;;
15383;SDS011;7790;53.022;12.968;2024-03-02T11:44:03;6.33;;;5.13;;
15383;SDS011;7790;53.022;12.968;2024-03-02T11:48:04;5.43;;;4.93;;
15383;SDS011;7790;53.022;12.968;2024-03-02T11:52:08;7.27;;;5.43;;
15383;SDS011;7790;53.022;12.968;2024-03-02T11:56:09;6.23;;;4.50;;
15383;SDS011;7790;53.022;12.968;2024-03-02T12:00:18;4.90;;;4.40;;
15383;SDS011;7790;53.022;12.968;2024-03-02T12:04:21;5.07;;;4.57;;
15383;SDS011;7790;53.022;12.968;2024-03-02T12:08:23;5.10;;;4.60;;
15383;SDS011;7790;53.022;12.968;2024-03-02T12:12:24;5.57;;;4.67;;
15383;SDS011;7790;53.022;12.968;2024-03-02T12:16:26;4.53;;;4.13;;
15383;SDS011;7790;53.022;12.968;2024-03-02T12:20:29;5.47;;;3.87;;
15383;SDS011;7790;53.022;12.968;2024-03-02T12:24:31;4.33;;;3.93;;
15383;SDS011;7790;53.022;12.968;2024-03-02T12:28:32;3.97;;;3.67;;
15383;SDS011;7790;53.022;12.968;2024-03-02T12:32:34;4.70;;;3.87;;
15383;SDS011;7790;53.022;12.968;2024-03-02T12:36:38;4.50;;;4.10;;
15383;SDS011;7790;53.022;12.968;2024-03-02T12:40:39;4.57;;;3.80;;
15383;SDS011;7790;53.022;12.968;2024-03-02T12:44:40;3.83;;;3.53;;
15383;SDS011;7790;53.022;12.968;2024-03-02T12:48:41;5.17;;;4.30;;
15383;SDS011;7790;53.022;12.968;2024-03-02T12:52:42;10.40;;;4.63;;
15383;SDS011;7790;53.022;12.968;2024-03-02T12:56:43;6.63;;;4.47;;
15383;SDS011;7790;53.022;12.968;2024-03-02T13:00:47;13.00;;;5.60;;
15383;SDS011;7790;53.022;12.968;2024-03-02T13:04:54;8.97;;;4.43;;
15383;SDS011;7790;53.022;12.968;2024-03-02T13:08:56;9.87;;;4.27;;
15383;SDS011;7790;53.022;12.968;2024-03-02T13:12:57;12.07;;;4.60;;
15383;SDS011;7790;53.022;12.968;2024-03-02T13:16:58;9.53;;;4.23;;
15383;SDS011;7790;53.022;12.968;2024-03-02T13:21:00;6.77;;;4.20;;
15383;SDS011;7790;53.022;12.968;2024-03-02T13:25:01;7.83;;;3.67;;
15383;SDS011;7790;53.022;12.968;2024-03-02T13:29:04;7.63;;;3.57;;
15383;SDS011;7790;53.022;12.968;2024-03-02T13:33:05;7.20;;;3.60;;
15383;SDS011;7790;53.022;12.968;2024-03-02T13:37:05;5.27;;;3.57;;
15383;SDS011;7790;53.022;12.968;2024-03-02T13:41:06;5.10;;;3.53;;
15383;SDS011;7790;53.022;12.968;2024-03-02T13:45:07;3.73;;;3.23;;
15383;SDS011;7790;53.022;12.968;2024-03-02T13:49:08;5.23;;;3.50;;
15383;SDS011;7790;53.022;12.968;2024-03-02T13:53:10;4.23;;;3.17;;
15383;SDS011;7790;53.022;12.968;2024-03-02T13:57:11;3.73;;;3.43;;
15383;SDS011;7790;53.022;12.968;2024-03-02T14:01:12;4.07;;;3.17;;
15383;SDS011;7790;53.022;12.968;2024-03-02T14:05:13;4.00;;;3.23;;
15383;SDS011;7790;53.022;12.968;2024-03-02T14:09:14;3.40;;;3.10;;
15383;SDS011;7790;53.022;12.968;2024-03-02T14:13:15;6.23;;;3.47;;
15383;SDS011;7790;53.022;12.968;2024-03-02T14:17:16;4.43;;;3.17;;
15383;SDS011;7790;53.022;12.968;2024-03-02T14:21:17;3.90;;;3.30;;
15383;SDS011;7790;53.022;12.968;2024-03-02T14:25:17;3.97;;;3.17;;
15383;SDS011;7790;53.022;12.968;2024-03-02T14:29:19;3.50;;;3.20;;
15383;SDS011;7790;53.022;12.968;2024-03-02T14:33:20;3.33;;;3.03;;
15383;SDS011;7790;53.022;12.968;2024-03-02T14:37:21;3.13;;;2.73;;
15383;SDS011;7790;53.022;12.968;2024-03-02T14:41:22;3.37;;;3.07;;
15383;SDS011;7790;53.022;12.968;2024-03-02T14:45:25;2.83;;;2.63;;
15383;SDS011;7790;53.022;12.968;2024-03-02T14:49:26;3.00;;;2.80;;
15383;SDS011;7790;53.022;12.968;2024-03-02T14:53:27;2.67;;;2.47;;
15383;SDS011;7790;53.022;12.968;2024-03-02T14:57:28;3.07;;;2.77;;
15383;SDS011;7790;53.022;12.968;2024-03-02T15:01:29;4.00;;;3.00;;
15383;SDS011;7790;53.022;12.968;2024-03-02T15:05:30;3.93;;;2.80;;
15383;SDS011;7790;53.022;12.968;2024-03-02T15:09:30;3.70;;;2.60;;
15383;SDS011;7790;53.022;12.968;2024-03-02T15:13:31;3.40;;;3.07;;
15383;SDS011;7790;53.022;12.968;2024-03-02T15:17:34;5.30;;;2.83;;
15383;SDS011;7790;53.022;12.968;2024-03-02T15:21:35;3.70;;;2.60;;
15383;SDS011;7790;53.022;12.968;2024-03-02T15:25:35;3.47;;;2.60;;
15383;SDS011;7790;53.022;12.968;2024-03-02T15:29:36;2.70;;;2.50;;
15383;SDS011;7790;53.022;12.968;2024-03-02T15:33:37;2.80;;;2.60;;
15383;SDS011;7790;53.022;12.968;2024-03-02T15:37:38;4.57;;;2.47;;
15383;SDS011;7790;53.022;12.968;2024-03-02T15:41:39;3.43;;;2.30;;
15383;SDS011;7790;53.022;12.968;2024-03-02T15:45:42;5.00;;;2.13;;
15383;SDS011;7790;53.022;12.968;2024-03-02T15:49:43;2.33;;;2.13;;
15383;SDS011;7790;53.022;12.968;2024-03-02T15:53:44;5.63;;;2.80;;
15383;SDS011;7790;53.022;12.968;2024-03-02T15:57:45;2.77;;;2.50;;
15383;SDS011;7790;53.022;12.968;2024-03-02T16:01:46;2.60;;;2.40;;
15383;SDS011;7790;53.022;12.968;2024-03-02T16:05:47;2.60;;;2.40;;
15383;SDS011;7790;53.022;12.968;2024-03-02T16:09:47;3.03;;;2.80;;
15383;SDS011;7790;53.022;12.968;2024-03-02T16:13:48;3.23;;;2.47;;
15383;SDS011;7790;53.022;12.968;2024-03-02T16:17:49;3.13;;;2.30;;
15383;SDS011;7790;53.022;12.968;2024-03-02T16:21:50;2.80;;;2.47;;
15383;SDS011;7790;53.022;12.968;2024-03-02T16:25:51;2.57;;;2.37;;
15383;SDS011;7790;53.022;12.968;2024-03-02T16:29:52;2.50;;;2.30;;
15383;SDS011;7790;53.022;12.968;2024-03-02T16:33:54;2.90;;;2.60;;
15383;SDS011;7790;53.022;12.968;2024-03-02T16:37:55;3.00;;;2.70;;
15383;SDS011;7790;53.022;12.968;2024-03-02T16:41:57;3.47;;;3.17;;
15383;SDS011;7790;53.022;12.968;2024-03-02T16:45:58;2.93;;;2.73;;
15383;SDS011;7790;53.022;12.968;2024-03-02T16:49:59;2.80;;;2.60;;
15383;SDS011;7790;53.022;12.968;2024-03-02T16:54:00;2.57;;;2.37;;
15383;SDS011;7790;53.022;12.968;2024-03-02T16:58:02;2.90;;;2.70;;
15383;SDS011;7790;53.022;12.968;2024-03-02T17:02:03;3.03;;;2.83;;
15383;SDS011;7790;53.022;12.968;2024-03-02T17:06:05;3.63;;;2.90;;
15383;SDS011;7790;53.022;12.968;2024-03-02T17:10:05;3.30;;;3.00;;
15383;SDS011;7790;53.022;12.968;2024-03-02T17:14:07;2.87;;;2.67;;
15383;SDS011;7790;53.022;12.968;2024-03-02T17:18:08;3.10;;;2.90;;
15383;SDS011;7790;53.022;12.968;2024-03-02T17:22:08;3.63;;;3.03;;
15383;SDS011;7790;53.022;12.968;2024-03-02T17:26:09;3.40;;;2.90;;
15383;SDS011;7790;53.022;12.968;2024-03-02T17:30:10;2.60;;;2.40;;
15383;SDS011;7790;53.022;12.968;2024-03-02T17:34:11;2.93;;;2.73;;
15383;SDS011;7790;53.022;12.968;2024-03-02T17:38:13;3.30;;;3.00;;
15383;SDS011;7790;53.022;12.968;2024-03-02T17:42:14;2.90;;;2.70;;
15383;SDS011;7790;53.022;12.968;2024-03-02T17:46:15;2.80;;;2.60;;
15383;SDS011;7790;53.022;12.968;2024-03-02T17:50:16;2.87;;;2.67;;
15383;SDS011;7790;53.022;12.968;2024-03-02T17:54:17;2.90;;;2.70;;
15383;SDS011;7790;53.022;12.968;2024-03-02T17:58:18;5.13;;;2.80;;
15383;SDS011;7790;53.022;12.968;2024-03-02T18:02:19;2.87;;;2.60;;
15383;SDS011;7790;53.022;12.968;2024-03-02T18:06:19;2.90;;;2.70;;
15383;SDS011;7790;53.022;12.968;2024-03-02T18:10:20;3.17;;;2.87;;
15383;SDS011;7790;53.022;12.968;2024-03-02T18:14:21;3.97;;;3.00;;
15383;SDS011;7790;53.022;12.968;2024-03-02T18:18:22;3.10;;;2.80;;
15383;SDS011;7790;53.022;12.968;2024-03-02T18:22:23;3.10;;;2.80;;
15383;SDS011;7790;53.022;12.968;2024-03-02T18:26:23;3.10;;;2.90;;
15383;SDS011;7790;53.022;12.968;2024-03-02T18:30:25;3.03;;;2.83;;
15383;SDS011;7790;53.022;12.968;2024-03-02T18:34:26;3.50;;;3.20;;
15383;SDS011;7790;53.022;12.968;2024-03-02T18:38:27;3.10;;;2.90;;
15383;SDS011;7790;53.022;12.968;2024-03-02T18:42:28;3.60;;;3.30;;
15383;SDS011;7790;53.022;12.968;2024-03-02T18:46:29;4.00;;;3.70;;
15383;SDS011;7790;53.022;12.968;2024-03-02T18:50:30;3.50;;;3.20;;
15383;SDS011;7790;53.022;12.968;2024-03-02T18:54:33;3.40;;;3.10;;
15383;SDS011;7790;53.022;12.968;2024-03-02T18:58:33;3.90;;;3.50;;
15383;SDS011;7790;53.022;12.968;2024-03-02T19:02:35;3.60;;;3.30;;
15383;SDS011;7790;53.022;12.968;2024-03-02T19:06:37;3.63;;;3.33;;
15383;SDS011;7790;53.022;12.968;2024-03-02T19:10:38;3.50;;;3.20;;
15383;SDS011;7790;53.022;12.968;2024-03-02T19:14:39;3.67;;;3.37;;
15383;SDS011;7790;53.022;12.968;2024-03-02T19:18:40;3.17;;;2.97;;
15383;SDS011;7790;53.022;12.968;2024-03-02T19:22:42;3.53;;;3.23;;
15383;SDS011;7790;53.022;12.968;2024-03-02T19:26:42;3.30;;;3.10;;
15383;SDS011;7790;53.022;12.968;2024-03-02T19:30:44;3.57;;;3.27;;
15383;SDS011;7790;53.022;12.968;2024-03-02T19:34:46;6.77;;;4.20;;
15383;SDS011;7790;53.022;12.968;2024-03-02T19:38:46;9.13;;;4.80;;
15383;SDS011;7790;53.022;12.968;2024-03-02T19:42:47;4.63;;;3.87;;
15383;SDS011;7790;53.022;12.968;2024-03-02T19:46:48;5.47;;;3.57;;
15383;SDS011;7790;53.022;12.968;2024-03-02T19:50:49;9.47;;;6.10;;
15383;SDS011;7790;53.022;12.968;2024-03-02T19:54:50;11.03;;;5.20;;
15383;SDS011;7790;53.022;12.968;2024-03-02T19:58:51;8.40;;;4.60;;
15383;SDS011;7790;53.022;12.968;2024-03-02T20:02:52;9.60;;;5.13;;
15383;SDS011;7790;53.022;12.968;2024-03-02T20:06:53;9.00;;;4.60;;
15383;SDS011;7790;53.022;12.968;2024-03-02T20:10:54;5.13;;;4.37;;
15383;SDS011;7790;53.022;12.968;2024-03-02T20:14:55;4.93;;;4.43;;
15383;SDS011;7790;53.022;12.968;2024-03-02T20:18:56;5.37;;;4.87;;
15383;SDS011;7790;53.022;12.968;2024-03-02T20:22:57;5.37;;;4.83;;
15383;SDS011;7790;53.022;12.968;2024-03-02T20:26:58;7.53;;;4.93;;
15383;SDS011;7790;53.022;12.968;2024-03-02T20:30:59;5.43;;;4.93;;
15383;SDS011;7790;53.022;12.968;2024-03-02T20:35:00;5.57;;;5.07;;
15383;SDS011;7790;53.022;12.968;2024-03-02T20:39:01;6.43;;;5.33;;
15383;SDS011;7790;53.022;12.968;2024-03-02T20:43:05;5.27;;;4.77;;
15383;SDS011;7790;53.022;12.968;2024-03-02T20:47:06;5.80;;;5.13;;
15383;SDS011;7790;53.022;12.968;2024-03-02T20:51:07;6.50;;;5.33;;
15383;SDS011;7790;53.022;12.968;2024-03-02T20:55:08;5.20;;;4.73;;
15383;SDS011;7790;53.022;12.968;2024-03-02T20:59:11;5.30;;;4.67;;
15383;SDS011;7790;53.022;12.968;2024-03-02T21:03:12;5.17;;;4.27;;
15383;SDS011;7790;53.022;12.968;2024-03-02T21:07:12;5.00;;;4.50;;
15383;SDS011;7790;53.022;12.968;2024-03-02T21:11:13;6.27;;;5.53;;
15383;SDS011;7790;53.022;12.968;2024-03-02T21:15:16;4.73;;;4.33;;
15383;SDS011;7790;53.022;12.968;2024-03-02T21:19:16;4.97;;;4.57;;
15383;SDS011;7790;53.022;12.968;2024-03-02T21:23:17;7.93;;;4.87;;
15383;SDS011;7790;53.022;12.968;2024-03-02T21:27:18;5.63;;;4.60;;
15383;SDS011;7790;53.022;12.968;2024-03-02T21:31:19;5.27;;;4.77;;
15383;SDS011;7790;53.022;12.968;2024-03-02T21:35:20;4.77;;;4.37;;
15383;SDS011;7790;53.022;12.968;2024-03-02T21:39:21;4.97;;;4.50;;
15383;SDS011;7790;53.022;12.968;2024-03-02T21:43:22;5.97;;;4.90;;
15383;SDS011;7790;53.022;12.968;2024-03-02T21:47:23;10.60;;;5.07;;
15383;SDS011;7790;53.022;12.968;2024-03-02T21:51:23;15.27;;;5.30;;
15383;SDS011;7790;53.022;12.968;2024-03-02T21:55:24;9.30;;;4.87;;
15383;SDS011;7790;53.022;12.968;2024-03-02T21:59:25;7.73;;;4.60;;
15383;SDS011;7790;53.022;12.968;2024-03-02T22:03:26;7.47;;;4.57;;
15383;SDS011;7790;53.022;12.968;2024-03-02T22:07:27;10.60;;;4.60;;
15383;SDS011;7790;53.022;12.968;2024-03-02T22:11:28;8.87;;;4.50;;
15383;SDS011;7790;53.022;12.968;2024-03-02T22:15:29;9.93;;;4.90;;
15383;SDS011;7790;53.022;12.968;2024-03-02T22:19:30;8.13;;;5.10;;
15383;SDS011;7790;53.022;12.968;2024-03-02T22:23:31;6.90;;;4.83;;
15383;SDS011;7790;53.022;12.968;2024-03-02T22:27:32;7.97;;;4.87;;
15383;SDS011;7790;53.022;12.968;2024-03-02T22:31:35;12.83;;;5.70;;
15383;SDS011;7790;53.022;12.968;2024-03-02T22:35:36;9.00;;;5.13;;
15383;SDS011;7790;53.022;12.968;2024-03-02T22:39:36;7.73;;;5.23;;
15383;SDS011;7790;53.022;12.968;2024-03-02T22:43:37;7.53;;;5.47;;
15383;SDS011;7790;53.022;12.968;2024-03-02T22:47:39;6.27;;;5.10;;
15383;SDS011;7790;53.022;12.968;2024-03-02T22:51:39;4.93;;;4.43;;
15383;SDS011;7790;53.022;12.968;2024-03-02T22:55:40;8.77;;;5.57;;
15383;SDS011;7790;53.022;12.968;2024-03-02T22:59:41;9.47;;;7.10;;
15383;SDS011;7790;53.022;12.968;2024-03-02T23:03:42;8.10;;;6.13;;
15383;SDS011;7790;53.022;12.968;2024-03-02T23:07:43;9.30;;;6.93;;
15383;SDS011;7790;53.022;12.968;2024-03-02T23:11:44;11.43;;;7.67;;
15383;SDS011;7790;53.022;12.968;2024-03-02T23:15:45;16.43;;;7.43;;
15383;SDS011;7790;53.022;12.968;2024-03-02T23:19:45;13.70;;;6.67;;
15383;SDS011;7790;53.022;12.968;2024-03-02T23:23:46;13.10;;;7.10;;
15383;SDS011;7790;53.022;12.968;2024-03-02T23:27:49;13.23;;;7.03;;
15383;SDS011;7790;53.022;12.968;2024-03-02T23:31:50;13.30;;;6.60;;
15383;SDS011;7790;53.022;12.968;2024-03-02T23:35:51;12.13;;;6.53;;
15383;SDS011;7790;53.022;12.968;2024-03-02T23:39:51;10.17;;;6.87;;
15383;SDS011;7790;53.022;12.968;2024-03-02T23:44:01;9.10;;;6.47;;
15383;SDS011;7790;53.022;12.968;2024-03-02T23:48:02;9.93;;;5.97;;
15383;SDS011;7790;53.022;12.968;2024-03-02T23:52:03;8.20;;;6.83;;
15383;SDS011;7790;53.022;12.968;2024-03-02T23:56:08;11.50;;;6.30;;
